馬祖北竿航空站 - ATIS

METAR RCMT 231200Z 03012KT 4200 HZ FEW016 SCT040 13/09 Q1027 NOSIG RMK A3035(V)=

站台狀態:Online
最後更新:2020-02-24 02:30:02